In Rescue
 
Open Full Screen Window  High Contrast Mode
Wind Gusting 00 knots
08
March 01, 2024 3:17 PM CST
Weather Information
Wind Direction
  170 °
Wind Speed
  08 kt (9 mph)
Wind Gust
  00 kt (0 mph)
Altimeter
29.60 in
Visibility
10 SM
Temperature
02° C
36° F
Dewpoint
-04° C
25° F
Humidity
64%
Sky Condition
Clear
VFR

METAR KFGN 012117Z AUTO 17008KT 10SM CLR 02/M04 A2960 RMK AO2

FAA Disclaimer: The data displayed is for advisory purposes only and is not to be used for flight planning or operations.